Terminal Aerodrome Forecast
Issued by NWS

Home | Current Version | Previous Version | Text Only | Print | Product List | Glossary On
Versions: 1 2 3 4 5 6 7 8 9 10 11 12 13
000
FTUS42 KGSP 221729
TAFGMU
TAF
KGMU 221729Z 2218/2318 13004KT P6SM FEW250
     FM230200 04004KT P6SM BKN100
     FM231100 04007KT P6SM -RA OVC050
     FM231300 04008KT P6SM -RA OVC017
     FM231500 04008KT 5SM RA BR OVC008=

USA.gov is the U.S. government's official web portal to all federal, state and local government web resources and services.